Terminal Aerodrome Forecast
Issued by NWS

Home | Current Version | Previous Version | Text Only | Print | Product List | Glossary On
Versions: 1 2 3 4 5 6 7 8 9 10 11 12 13
000
FTUS45 KRIW 192322
TAFBPI
TAF
KBPI 192322Z 2000/2024 14011G19KT P6SM OVC150
     FM200200 06014KT P6SM OVC060
     FM200800 36009KT P6SM VCSH OVC040
     FM201400 36011KT 5SM -SHRASN OVC025
     FM201800 36012G20KT P6SM VCSH OVC040=

USA.gov is the U.S. government's official web portal to all federal, state and local government web resources and services.